sensor_id;sensor_type;location;lat;lon;timestamp;temperature;humidity
21207;DHT22;10761;48.532;8.026;2023-12-29T00:01:41;10.60;1.00
21207;DHT22;10761;48.532;8.026;2023-12-29T00:04:07;10.50;99.90
21207;DHT22;10761;48.532;8.026;2023-12-29T00:06:32;10.40;99.90
21207;DHT22;10761;48.532;8.026;2023-12-29T00:08:58;10.40;1.00
21207;DHT22;10761;48.532;8.026;2023-12-29T00:11:25;10.30;1.00
21207;DHT22;10761;48.532;8.026;2023-12-29T00:13:51;10.30;1.00
21207;DHT22;10761;48.532;8.026;2023-12-29T00:16:16;10.20;1.00
21207;DHT22;10761;48.532;8.026;2023-12-29T00:18:42;10.20;1.00
21207;DHT22;10761;48.532;8.026;2023-12-29T00:21:07;10.20;1.00
21207;DHT22;10761;48.532;8.026;2023-12-29T00:23:33;10.10;1.00
21207;DHT22;10761;48.532;8.026;2023-12-29T00:25:58;10.10;1.00
21207;DHT22;10761;48.532;8.026;2023-12-29T00:28:24;10.00;1.00
21207;DHT22;10761;48.532;8.026;2023-12-29T00:30:49;10.00;1.00
21207;DHT22;10761;48.532;8.026;2023-12-29T00:33:15;10.00;1.00
21207;DHT22;10761;48.532;8.026;2023-12-29T00:35:40;10.00;1.00
21207;DHT22;10761;48.532;8.026;2023-12-29T00:38:06;10.00;1.00
21207;DHT22;10761;48.532;8.026;2023-12-29T00:40:34;10.00;1.00
21207;DHT22;10761;48.532;8.026;2023-12-29T00:43:01;10.00;1.00
21207;DHT22;10761;48.532;8.026;2023-12-29T00:45:27;10.20;1.00
21207;DHT22;10761;48.532;8.026;2023-12-29T00:47:57;10.00;1.00
21207;DHT22;10761;48.532;8.026;2023-12-29T00:50:23;9.90;1.00
21207;DHT22;10761;48.532;8.026;2023-12-29T00:52:48;9.90;1.00
21207;DHT22;10761;48.532;8.026;2023-12-29T00:55:14;9.90;1.00
21207;DHT22;10761;48.532;8.026;2023-12-29T00:57:39;9.90;1.00
21207;DHT22;10761;48.532;8.026;2023-12-29T01:00:05;9.90;1.00
21207;DHT22;10761;48.532;8.026;2023-12-29T01:02:32;9.90;1.00
21207;DHT22;10761;48.532;8.026;2023-12-29T01:04:58;9.90;1.00
21207;DHT22;10761;48.532;8.026;2023-12-29T01:07:23;9.90;1.00
21207;DHT22;10761;48.532;8.026;2023-12-29T01:09:49;9.90;1.00
21207;DHT22;10761;48.532;8.026;2023-12-29T01:12:14;9.90;1.00
21207;DHT22;10761;48.532;8.026;2023-12-29T01:14:40;9.80;1.00
21207;DHT22;10761;48.532;8.026;2023-12-29T01:17:06;9.80;1.00
21207;DHT22;10761;48.532;8.026;2023-12-29T01:19:31;9.90;1.00
21207;DHT22;10761;48.532;8.026;2023-12-29T01:21:57;9.90;1.00
21207;DHT22;10761;48.532;8.026;2023-12-29T01:24:22;9.90;1.00
21207;DHT22;10761;48.532;8.026;2023-12-29T01:26:48;9.90;1.00
21207;DHT22;10761;48.532;8.026;2023-12-29T01:29:14;9.90;1.00
21207;DHT22;10761;48.532;8.026;2023-12-29T01:31:39;10.00;1.00
21207;DHT22;10761;48.532;8.026;2023-12-29T01:34:05;10.10;1.00
21207;DHT22;10761;48.532;8.026;2023-12-29T01:36:30;10.20;1.00
21207;DHT22;10761;48.532;8.026;2023-12-29T01:38:56;10.10;1.00
21207;DHT22;10761;48.532;8.026;2023-12-29T01:41:22;10.20;1.00
21207;DHT22;10761;48.532;8.026;2023-12-29T01:46:26;10.20;1.00
21207;DHT22;10761;48.532;8.026;2023-12-29T01:48:53;10.10;1.00
21207;DHT22;10761;48.532;8.026;2023-12-29T01:51:21;10.10;1.00
21207;DHT22;10761;48.532;8.026;2023-12-29T01:53:49;10.10;1.00
21207;DHT22;10761;48.532;8.026;2023-12-29T01:56:16;10.10;1.00
21207;DHT22;10761;48.532;8.026;2023-12-29T01:58:43;10.10;1.00
21207;DHT22;10761;48.532;8.026;2023-12-29T02:01:08;10.10;1.00
21207;DHT22;10761;48.532;8.026;2023-12-29T02:03:35;10.10;1.00
21207;DHT22;10761;48.532;8.026;2023-12-29T02:06:01;10.10;1.00
21207;DHT22;10761;48.532;8.026;2023-12-29T02:08:27;10.10;1.00
21207;DHT22;10761;48.532;8.026;2023-12-29T02:10:53;10.20;1.00
21207;DHT22;10761;48.532;8.026;2023-12-29T02:13:20;10.10;1.00
21207;DHT22;10761;48.532;8.026;2023-12-29T02:15:49;10.10;1.00
21207;DHT22;10761;48.532;8.026;2023-12-29T02:18:16;10.10;1.00
21207;DHT22;10761;48.532;8.026;2023-12-29T02:20:43;10.10;1.00
21207;DHT22;10761;48.532;8.026;2023-12-29T02:23:08;10.10;1.00
21207;DHT22;10761;48.532;8.026;2023-12-29T02:25:34;10.10;1.00
21207;DHT22;10761;48.532;8.026;2023-12-29T02:28:19;10.10;1.00
21207;DHT22;10761;48.532;8.026;2023-12-29T02:30:49;10.00;1.00
21207;DHT22;10761;48.532;8.026;2023-12-29T02:33:21;10.00;1.00
21207;DHT22;10761;48.532;8.026;2023-12-29T02:35:51;9.90;1.00
21207;DHT22;10761;48.532;8.026;2023-12-29T02:38:17;10.00;1.00
21207;DHT22;10761;48.532;8.026;2023-12-29T02:40:43;10.00;1.00
21207;DHT22;10761;48.532;8.026;2023-12-29T02:43:09;10.00;1.00
21207;DHT22;10761;48.532;8.026;2023-12-29T02:45:35;10.10;1.00
21207;DHT22;10761;48.532;8.026;2023-12-29T02:48:01;10.00;1.00
21207;DHT22;10761;48.532;8.026;2023-12-29T02:50:26;10.00;1.00
21207;DHT22;10761;48.532;8.026;2023-12-29T02:52:52;10.00;1.00
21207;DHT22;10761;48.532;8.026;2023-12-29T02:55:18;10.10;1.00
21207;DHT22;10761;48.532;8.026;2023-12-29T02:57:43;10.00;1.00
21207;DHT22;10761;48.532;8.026;2023-12-29T03:00:09;10.10;1.00
21207;DHT22;10761;48.532;8.026;2023-12-29T03:02:35;10.10;1.00
21207;DHT22;10761;48.532;8.026;2023-12-29T03:05:00;10.20;1.00
21207;DHT22;10761;48.532;8.026;2023-12-29T03:07:26;10.20;1.00
21207;DHT22;10761;48.532;8.026;2023-12-29T03:09:51;10.30;1.00
21207;DHT22;10761;48.532;8.026;2023-12-29T03:12:17;10.30;1.00
21207;DHT22;10761;48.532;8.026;2023-12-29T03:14:44;10.40;1.00
21207;DHT22;10761;48.532;8.026;2023-12-29T03:17:10;10.40;1.00
21207;DHT22;10761;48.532;8.026;2023-12-29T03:19:35;10.40;1.00
21207;DHT22;10761;48.532;8.026;2023-12-29T03:22:01;10.40;1.00
21207;DHT22;10761;48.532;8.026;2023-12-29T03:24:28;10.40;1.00
21207;DHT22;10761;48.532;8.026;2023-12-29T03:26:54;10.40;1.00
21207;DHT22;10761;48.532;8.026;2023-12-29T03:29:20;10.30;1.00
21207;DHT22;10761;48.532;8.026;2023-12-29T03:31:45;10.30;1.00
21207;DHT22;10761;48.532;8.026;2023-12-29T03:34:11;10.30;1.00
21207;DHT22;10761;48.532;8.026;2023-12-29T03:36:37;10.30;1.00
21207;DHT22;10761;48.532;8.026;2023-12-29T03:39:02;10.30;1.00
21207;DHT22;10761;48.532;8.026;2023-12-29T03:41:28;10.30;1.00
21207;DHT22;10761;48.532;8.026;2023-12-29T03:43:53;10.20;1.00
21207;DHT22;10761;48.532;8.026;2023-12-29T03:46:20;10.20;10.00
21207;DHT22;10761;48.532;8.026;2023-12-29T03:48:46;10.10;15.20
21207;DHT22;10761;48.532;8.026;2023-12-29T03:51:13;10.10;30.70
21207;DHT22;10761;48.532;8.026;2023-12-29T03:53:39;10.10;33.30
21207;DHT22;10761;48.532;8.026;2023-12-29T03:56:15;10.20;7.20
21207;DHT22;10761;48.532;8.026;2023-12-29T03:58:41;10.20;14.10
21207;DHT22;10761;48.532;8.026;2023-12-29T04:01:11;10.20;13.40
21207;DHT22;10761;48.532;8.026;2023-12-29T04:03:37;10.20;29.00
21207;DHT22;10761;48.532;8.026;2023-12-29T04:06:04;10.10;49.40
21207;DHT22;10761;48.532;8.026;2023-12-29T04:08:29;10.10;38.60
21207;DHT22;10761;48.532;8.026;2023-12-29T04:10:55;10.10;53.50
21207;DHT22;10761;48.532;8.026;2023-12-29T04:13:20;10.10;72.90
21207;DHT22;10761;48.532;8.026;2023-12-29T04:15:46;10.00;85.70
21207;DHT22;10761;48.532;8.026;2023-12-29T04:18:11;10.00;97.50
21207;DHT22;10761;48.532;8.026;2023-12-29T04:20:37;10.10;99.90
21207;DHT22;10761;48.532;8.026;2023-12-29T04:23:03;10.10;99.90
21207;DHT22;10761;48.532;8.026;2023-12-29T04:25:29;10.00;99.90
21207;DHT22;10761;48.532;8.026;2023-12-29T04:27:54;10.10;99.90
21207;DHT22;10761;48.532;8.026;2023-12-29T04:30:20;10.00;99.90
21207;DHT22;10761;48.532;8.026;2023-12-29T04:32:45;10.00;99.90
21207;DHT22;10761;48.532;8.026;2023-12-29T04:35:11;10.20;99.90
21207;DHT22;10761;48.532;8.026;2023-12-29T04:37:38;10.00;99.90
21207;DHT22;10761;48.532;8.026;2023-12-29T04:40:04;10.00;99.90
21207;DHT22;10761;48.532;8.026;2023-12-29T04:42:30;10.00;99.90
21207;DHT22;10761;48.532;8.026;2023-12-29T04:44:56;10.00;99.90
21207;DHT22;10761;48.532;8.026;2023-12-29T04:47:21;10.10;99.90
21207;DHT22;10761;48.532;8.026;2023-12-29T04:49:47;10.10;99.90
21207;DHT22;10761;48.532;8.026;2023-12-29T04:52:12;10.10;99.90
21207;DHT22;10761;48.532;8.026;2023-12-29T04:54:38;10.00;99.90
21207;DHT22;10761;48.532;8.026;2023-12-29T04:57:04;10.10;99.90
21207;DHT22;10761;48.532;8.026;2023-12-29T04:59:29;10.10;99.90
21207;DHT22;10761;48.532;8.026;2023-12-29T05:01:55;10.10;99.90
21207;DHT22;10761;48.532;8.026;2023-12-29T05:04:20;10.10;99.90
21207;DHT22;10761;48.532;8.026;2023-12-29T05:06:46;10.10;99.90
21207;DHT22;10761;48.532;8.026;2023-12-29T05:09:12;10.20;99.90
21207;DHT22;10761;48.532;8.026;2023-12-29T05:11:37;10.00;99.90
21207;DHT22;10761;48.532;8.026;2023-12-29T05:14:03;10.00;99.90
21207;DHT22;10761;48.532;8.026;2023-12-29T05:16:28;10.00;99.90
21207;DHT22;10761;48.532;8.026;2023-12-29T05:18:54;10.10;99.90
21207;DHT22;10761;48.532;8.026;2023-12-29T05:21:19;10.00;99.90
21207;DHT22;10761;48.532;8.026;2023-12-29T05:23:46;10.00;99.90
21207;DHT22;10761;48.532;8.026;2023-12-29T05:26:14;10.00;99.90
21207;DHT22;10761;48.532;8.026;2023-12-29T05:28:39;10.00;99.90
21207;DHT22;10761;48.532;8.026;2023-12-29T05:31:05;10.00;99.90
21207;DHT22;10761;48.532;8.026;2023-12-29T05:33:31;10.00;99.90
21207;DHT22;10761;48.532;8.026;2023-12-29T05:35:57;10.00;99.90
21207;DHT22;10761;48.532;8.026;2023-12-29T05:38:23;9.90;99.90
21207;DHT22;10761;48.532;8.026;2023-12-29T05:40:48;9.90;99.90
21207;DHT22;10761;48.532;8.026;2023-12-29T05:43:18;9.90;99.90
21207;DHT22;10761;48.532;8.026;2023-12-29T05:45:44;9.90;99.90
21207;DHT22;10761;48.532;8.026;2023-12-29T05:48:10;9.90;99.90
21207;DHT22;10761;48.532;8.026;2023-12-29T05:50:35;9.90;99.90
21207;DHT22;10761;48.532;8.026;2023-12-29T05:53:01;9.90;99.90
21207;DHT22;10761;48.532;8.026;2023-12-29T05:55:26;9.90;99.90
21207;DHT22;10761;48.532;8.026;2023-12-29T05:57:52;9.80;99.90
21207;DHT22;10761;48.532;8.026;2023-12-29T06:00:17;9.80;99.90
21207;DHT22;10761;48.532;8.026;2023-12-29T06:02:43;9.80;99.90
21207;DHT22;10761;48.532;8.026;2023-12-29T06:05:12;9.80;99.90
21207;DHT22;10761;48.532;8.026;2023-12-29T06:07:38;9.80;99.90
21207;DHT22;10761;48.532;8.026;2023-12-29T06:10:04;9.80;99.90
21207;DHT22;10761;48.532;8.026;2023-12-29T06:12:29;9.80;99.90
21207;DHT22;10761;48.532;8.026;2023-12-29T06:14:55;9.70;99.90
21207;DHT22;10761;48.532;8.026;2023-12-29T06:17:20;9.70;99.90
21207;DHT22;10761;48.532;8.026;2023-12-29T06:19:46;9.90;99.90
21207;DHT22;10761;48.532;8.026;2023-12-29T06:22:11;9.80;99.90
21207;DHT22;10761;48.532;8.026;2023-12-29T06:24:42;9.80;99.90
21207;DHT22;10761;48.532;8.026;2023-12-29T06:27:11;9.80;99.90
21207;DHT22;10761;48.532;8.026;2023-12-29T06:29:37;9.80;99.90
21207;DHT22;10761;48.532;8.026;2023-12-29T06:32:03;9.80;99.90
21207;DHT22;10761;48.532;8.026;2023-12-29T06:34:29;9.80;99.90
21207;DHT22;10761;48.532;8.026;2023-12-29T06:36:54;9.80;99.90
21207;DHT22;10761;48.532;8.026;2023-12-29T06:39:20;9.80;99.90
21207;DHT22;10761;48.532;8.026;2023-12-29T06:41:45;9.80;99.90
21207;DHT22;10761;48.532;8.026;2023-12-29T06:44:11;9.90;99.90
21207;DHT22;10761;48.532;8.026;2023-12-29T06:46:38;9.90;99.90
21207;DHT22;10761;48.532;8.026;2023-12-29T06:49:04;9.90;99.90
21207;DHT22;10761;48.532;8.026;2023-12-29T06:51:29;10.00;99.90
21207;DHT22;10761;48.532;8.026;2023-12-29T06:53:55;9.90;99.90
21207;DHT22;10761;48.532;8.026;2023-12-29T06:56:20;10.00;99.90
21207;DHT22;10761;48.532;8.026;2023-12-29T06:58:46;10.00;99.90
21207;DHT22;10761;48.532;8.026;2023-12-29T07:01:12;10.10;99.90
21207;DHT22;10761;48.532;8.026;2023-12-29T07:03:38;10.20;99.90
21207;DHT22;10761;48.532;8.026;2023-12-29T07:06:04;10.20;99.90
21207;DHT22;10761;48.532;8.026;2023-12-29T07:08:30;10.20;99.90
21207;DHT22;10761;48.532;8.026;2023-12-29T07:10:56;10.10;99.90
21207;DHT22;10761;48.532;8.026;2023-12-29T07:13:21;10.20;99.90
21207;DHT22;10761;48.532;8.026;2023-12-29T07:15:47;10.20;99.90
21207;DHT22;10761;48.532;8.026;2023-12-29T07:18:14;10.20;99.90
21207;DHT22;10761;48.532;8.026;2023-12-29T07:20:40;10.20;97.90
21207;DHT22;10761;48.532;8.026;2023-12-29T07:23:05;10.20;99.90
21207;DHT22;10761;48.532;8.026;2023-12-29T07:25:31;10.20;99.90
21207;DHT22;10761;48.532;8.026;2023-12-29T07:27:56;10.20;99.90
21207;DHT22;10761;48.532;8.026;2023-12-29T07:30:22;10.20;99.90
21207;DHT22;10761;48.532;8.026;2023-12-29T07:32:47;10.20;99.90
21207;DHT22;10761;48.532;8.026;2023-12-29T07:35:13;10.20;99.90
21207;DHT22;10761;48.532;8.026;2023-12-29T07:37:42;10.20;99.90
21207;DHT22;10761;48.532;8.026;2023-12-29T07:40:09;10.20;99.90
21207;DHT22;10761;48.532;8.026;2023-12-29T07:42:35;10.20;99.90
21207;DHT22;10761;48.532;8.026;2023-12-29T07:45:01;10.20;99.90
21207;DHT22;10761;48.532;8.026;2023-12-29T07:47:26;10.20;99.90
21207;DHT22;10761;48.532;8.026;2023-12-29T07:49:52;10.30;99.90
21207;DHT22;10761;48.532;8.026;2023-12-29T07:52:17;10.30;99.90
21207;DHT22;10761;48.532;8.026;2023-12-29T07:54:43;10.30;99.90
21207;DHT22;10761;48.532;8.026;2023-12-29T07:57:08;10.40;99.90
21207;DHT22;10761;48.532;8.026;2023-12-29T07:59:34;10.30;99.90
21207;DHT22;10761;48.532;8.026;2023-12-29T08:02:00;10.40;99.90
21207;DHT22;10761;48.532;8.026;2023-12-29T08:04:25;10.40;99.90
21207;DHT22;10761;48.532;8.026;2023-12-29T08:06:51;10.40;99.90
21207;DHT22;10761;48.532;8.026;2023-12-29T08:09:16;10.50;99.90
21207;DHT22;10761;48.532;8.026;2023-12-29T08:11:42;10.50;87.70
21207;DHT22;10761;48.532;8.026;2023-12-29T08:14:08;10.60;90.60
21207;DHT22;10761;48.532;8.026;2023-12-29T08:16:40;10.50;99.90
21207;DHT22;10761;48.532;8.026;2023-12-29T08:19:06;10.50;99.90
21207;DHT22;10761;48.532;8.026;2023-12-29T08:21:32;10.50;99.90
21207;DHT22;10761;48.532;8.026;2023-12-29T08:23:58;11.00;99.90
21207;DHT22;10761;48.532;8.026;2023-12-29T08:26:23;10.50;99.90
21207;DHT22;10761;48.532;8.026;2023-12-29T08:28:49;10.50;99.90
21207;DHT22;10761;48.532;8.026;2023-12-29T08:31:15;10.50;99.90
21207;DHT22;10761;48.532;8.026;2023-12-29T08:33:42;10.60;85.00
21207;DHT22;10761;48.532;8.026;2023-12-29T08:36:07;10.60;59.70
21207;DHT22;10761;48.532;8.026;2023-12-29T08:38:33;10.60;99.90
21207;DHT22;10761;48.532;8.026;2023-12-29T08:40:59;10.50;99.90
21207;DHT22;10761;48.532;8.026;2023-12-29T08:43:25;10.60;99.90
21207;DHT22;10761;48.532;8.026;2023-12-29T08:45:50;10.40;99.90
21207;DHT22;10761;48.532;8.026;2023-12-29T08:48:16;10.40;99.90
21207;DHT22;10761;48.532;8.026;2023-12-29T08:50:42;10.40;99.90
21207;DHT22;10761;48.532;8.026;2023-12-29T08:53:11;10.50;99.90
21207;DHT22;10761;48.532;8.026;2023-12-29T08:55:36;10.50;99.90
21207;DHT22;10761;48.532;8.026;2023-12-29T08:58:02;10.60;99.90
21207;DHT22;10761;48.532;8.026;2023-12-29T09:00:28;10.60;99.90
21207;DHT22;10761;48.532;8.026;2023-12-29T09:02:56;10.70;99.90
21207;DHT22;10761;48.532;8.026;2023-12-29T09:05:21;10.70;99.90
21207;DHT22;10761;48.532;8.026;2023-12-29T09:07:47;10.80;99.90
21207;DHT22;10761;48.532;8.026;2023-12-29T09:10:13;10.70;99.90
21207;DHT22;10761;48.532;8.026;2023-12-29T09:12:40;10.80;99.90
21207;DHT22;10761;48.532;8.026;2023-12-29T09:15:06;10.80;99.90
21207;DHT22;10761;48.532;8.026;2023-12-29T09:17:33;10.90;99.90
21207;DHT22;10761;48.532;8.026;2023-12-29T09:19:58;10.80;84.10
21207;DHT22;10761;48.532;8.026;2023-12-29T09:22:24;11.40;75.70
21207;DHT22;10761;48.532;8.026;2023-12-29T09:24:49;10.90;99.90
21207;DHT22;10761;48.532;8.026;2023-12-29T09:27:15;11.00;94.00
21207;DHT22;10761;48.532;8.026;2023-12-29T09:29:41;10.90;63.20
21207;DHT22;10761;48.532;8.026;2023-12-29T09:32:07;11.00;50.80
21207;DHT22;10761;48.532;8.026;2023-12-29T09:34:32;11.10;18.60
21207;DHT22;10761;48.532;8.026;2023-12-29T09:36:58;11.10;8.00
21207;DHT22;10761;48.532;8.026;2023-12-29T09:39:24;11.10;1.00
21207;DHT22;10761;48.532;8.026;2023-12-29T09:41:51;11.10;1.00
21207;DHT22;10761;48.532;8.026;2023-12-29T09:44:20;11.20;1.00
21207;DHT22;10761;48.532;8.026;2023-12-29T09:46:50;11.20;1.00
21207;DHT22;10761;48.532;8.026;2023-12-29T09:49:18;11.20;1.00
21207;DHT22;10761;48.532;8.026;2023-12-29T09:51:45;11.30;1.00
21207;DHT22;10761;48.532;8.026;2023-12-29T09:54:11;11.30;1.00
21207;DHT22;10761;48.532;8.026;2023-12-29T09:56:38;11.30;1.00
21207;DHT22;10761;48.532;8.026;2023-12-29T09:59:04;11.20;1.00
21207;DHT22;10761;48.532;8.026;2023-12-29T10:01:30;11.20;1.00
21207;DHT22;10761;48.532;8.026;2023-12-29T10:03:57;11.20;1.00
21207;DHT22;10761;48.532;8.026;2023-12-29T10:06:24;11.20;1.00
21207;DHT22;10761;48.532;8.026;2023-12-29T10:08:50;11.30;1.00
21207;DHT22;10761;48.532;8.026;2023-12-29T10:11:18;11.30;1.00
21207;DHT22;10761;48.532;8.026;2023-12-29T10:13:49;11.30;1.00
21207;DHT22;10761;48.532;8.026;2023-12-29T10:16:28;11.40;1.00
21207;DHT22;10761;48.532;8.026;2023-12-29T10:22:01;11.40;1.00
21207;DHT22;10761;48.532;8.026;2023-12-29T10:24:29;11.40;1.00
21207;DHT22;10761;48.532;8.026;2023-12-29T10:26:55;11.50;1.00
21207;DHT22;10761;48.532;8.026;2023-12-29T10:29:21;11.50;1.00
21207;DHT22;10761;48.532;8.026;2023-12-29T10:31:47;11.60;1.00
21207;DHT22;10761;48.532;8.026;2023-12-29T10:34:22;11.70;1.00
21207;DHT22;10761;48.532;8.026;2023-12-29T10:37:00;11.70;1.00
21207;DHT22;10761;48.532;8.026;2023-12-29T10:39:28;11.80;1.00
21207;DHT22;10761;48.532;8.026;2023-12-29T10:42:07;11.90;1.00
21207;DHT22;10761;48.532;8.026;2023-12-29T10:44:35;12.10;99.90
21207;DHT22;10761;48.532;8.026;2023-12-29T10:47:13;12.40;1.00
21207;DHT22;10761;48.532;8.026;2023-12-29T10:49:40;12.70;1.00
21207;DHT22;10761;48.532;8.026;2023-12-29T10:52:13;13.10;93.30
21207;DHT22;10761;48.532;8.026;2023-12-29T10:54:42;13.10;1.00
21207;DHT22;10761;48.532;8.026;2023-12-29T10:57:11;13.40;1.00
21207;DHT22;10761;48.532;8.026;2023-12-29T10:59:37;13.70;1.00
21207;DHT22;10761;48.532;8.026;2023-12-29T11:02:03;13.70;99.90
21207;DHT22;10761;48.532;8.026;2023-12-29T11:04:29;13.40;1.00
21207;DHT22;10761;48.532;8.026;2023-12-29T11:06:55;13.40;99.90
21207;DHT22;10761;48.532;8.026;2023-12-29T11:09:31;13.10;1.00
21207;DHT22;10761;48.532;8.026;2023-12-29T11:12:03;13.00;99.90
21207;DHT22;10761;48.532;8.026;2023-12-29T11:14:29;12.90;1.00
21207;DHT22;10761;48.532;8.026;2023-12-29T11:16:55;12.70;99.90
21207;DHT22;10761;48.532;8.026;2023-12-29T11:19:22;12.70;99.90
21207;DHT22;10761;48.532;8.026;2023-12-29T11:21:52;12.90;1.00
21207;DHT22;10761;48.532;8.026;2023-12-29T11:24:21;12.50;99.90
21207;DHT22;10761;48.532;8.026;2023-12-29T11:26:49;12.50;1.00
21207;DHT22;10761;48.532;8.026;2023-12-29T11:29:15;12.30;99.90
21207;DHT22;10761;48.532;8.026;2023-12-29T11:31:41;12.30;1.00
21207;DHT22;10761;48.532;8.026;2023-12-29T11:34:17;12.20;1.00
21207;DHT22;10761;48.532;8.026;2023-12-29T11:36:46;12.20;1.00
21207;DHT22;10761;48.532;8.026;2023-12-29T11:39:40;12.20;1.00
21207;DHT22;10761;48.532;8.026;2023-12-29T11:42:31;12.20;1.00
21207;DHT22;10761;48.532;8.026;2023-12-29T11:44:58;12.20;1.00
21207;DHT22;10761;48.532;8.026;2023-12-29T11:47:43;12.20;3.40
21207;DHT22;10761;48.532;8.026;2023-12-29T11:50:09;12.10;99.90
21207;DHT22;10761;48.532;8.026;2023-12-29T11:52:37;12.20;1.00
21207;DHT22;10761;48.532;8.026;2023-12-29T11:55:11;12.20;1.00
21207;DHT22;10761;48.532;8.026;2023-12-29T11:57:38;12.30;1.00
21207;DHT22;10761;48.532;8.026;2023-12-29T12:00:06;12.30;1.00
21207;DHT22;10761;48.532;8.026;2023-12-29T12:02:32;12.30;1.00
21207;DHT22;10761;48.532;8.026;2023-12-29T12:04:57;12.20;99.90
21207;DHT22;10761;48.532;8.026;2023-12-29T12:12:58;13.10;1.00
21207;DHT22;10761;48.532;8.026;2023-12-29T12:20:25;13.20;99.90
21207;DHT22;10761;48.532;8.026;2023-12-29T12:23:20;14.10;1.00
21207;DHT22;10761;48.532;8.026;2023-12-29T12:25:49;14.30;99.90
21207;DHT22;10761;48.532;8.026;2023-12-29T12:28:15;14.40;1.00
21207;DHT22;10761;48.532;8.026;2023-12-29T12:30:41;15.20;1.00
21207;DHT22;10761;48.532;8.026;2023-12-29T12:33:06;14.70;99.90
21207;DHT22;10761;48.532;8.026;2023-12-29T12:35:34;14.30;99.90
21207;DHT22;10761;48.532;8.026;2023-12-29T12:38:26;14.70;1.00
21207;DHT22;10761;48.532;8.026;2023-12-29T12:40:56;13.70;1.00
21207;DHT22;10761;48.532;8.026;2023-12-29T12:43:25;13.40;1.00
21207;DHT22;10761;48.532;8.026;2023-12-29T12:45:59;13.20;1.00
21207;DHT22;10761;48.532;8.026;2023-12-29T12:48:46;13.10;1.00
21207;DHT22;10761;48.532;8.026;2023-12-29T12:51:12;13.00;1.00
21207;DHT22;10761;48.532;8.026;2023-12-29T12:53:42;13.00;1.00
21207;DHT22;10761;48.532;8.026;2023-12-29T12:56:10;12.90;1.00
21207;DHT22;10761;48.532;8.026;2023-12-29T12:58:36;12.80;99.90
21207;DHT22;10761;48.532;8.026;2023-12-29T13:01:03;12.80;1.00
21207;DHT22;10761;48.532;8.026;2023-12-29T13:03:30;12.80;99.90
21207;DHT22;10761;48.532;8.026;2023-12-29T13:05:57;12.80;1.00
21207;DHT22;10761;48.532;8.026;2023-12-29T13:08:23;12.80;1.00
21207;DHT22;10761;48.532;8.026;2023-12-29T13:10:50;12.90;1.00
21207;DHT22;10761;48.532;8.026;2023-12-29T13:13:16;12.70;1.00
21207;DHT22;10761;48.532;8.026;2023-12-29T13:15:51;12.80;1.00
21207;DHT22;10761;48.532;8.026;2023-12-29T13:18:29;12.70;1.00
21207;DHT22;10761;48.532;8.026;2023-12-29T13:20:56;12.70;1.00
21207;DHT22;10761;48.532;8.026;2023-12-29T13:23:25;12.60;1.00
21207;DHT22;10761;48.532;8.026;2023-12-29T13:25:54;12.60;99.90
21207;DHT22;10761;48.532;8.026;2023-12-29T13:28:22;12.60;1.00
21207;DHT22;10761;48.532;8.026;2023-12-29T13:30:47;12.50;1.00
21207;DHT22;10761;48.532;8.026;2023-12-29T13:33:49;12.40;84.80
21207;DHT22;10761;48.532;8.026;2023-12-29T13:36:24;12.40;99.90
21207;DHT22;10761;48.532;8.026;2023-12-29T13:38:57;12.30;1.00
21207;DHT22;10761;48.532;8.026;2023-12-29T13:41:25;12.20;99.90
21207;DHT22;10761;48.532;8.026;2023-12-29T13:43:51;12.20;1.00
21207;DHT22;10761;48.532;8.026;2023-12-29T13:46:18;12.20;92.60
21207;DHT22;10761;48.532;8.026;2023-12-29T13:48:45;12.10;99.90
21207;DHT22;10761;48.532;8.026;2023-12-29T13:51:12;12.10;1.00
21207;DHT22;10761;48.532;8.026;2023-12-29T13:53:37;12.20;99.90
21207;DHT22;10761;48.532;8.026;2023-12-29T13:56:10;12.10;39.10
21207;DHT22;10761;48.532;8.026;2023-12-29T13:58:36;12.10;1.00
21207;DHT22;10761;48.532;8.026;2023-12-29T14:01:07;12.20;1.00
21207;DHT22;10761;48.532;8.026;2023-12-29T14:03:58;12.10;1.00
21207;DHT22;10761;48.532;8.026;2023-12-29T14:06:36;12.10;1.00
21207;DHT22;10761;48.532;8.026;2023-12-29T14:09:03;12.10;1.00
21207;DHT22;10761;48.532;8.026;2023-12-29T14:11:29;12.20;1.00
21207;DHT22;10761;48.532;8.026;2023-12-29T14:13:56;12.20;1.00
21207;DHT22;10761;48.532;8.026;2023-12-29T14:16:21;12.20;1.00
21207;DHT22;10761;48.532;8.026;2023-12-29T14:18:55;12.20;1.00
21207;DHT22;10761;48.532;8.026;2023-12-29T14:21:30;12.40;1.00
21207;DHT22;10761;48.532;8.026;2023-12-29T14:26:32;12.40;1.00
21207;DHT22;10761;48.532;8.026;2023-12-29T14:31:27;12.30;1.00
21207;DHT22;10761;48.532;8.026;2023-12-29T14:33:53;12.30;1.00
21207;DHT22;10761;48.532;8.026;2023-12-29T14:36:19;12.30;1.00
21207;DHT22;10761;48.532;8.026;2023-12-29T14:38:44;12.20;1.00
21207;DHT22;10761;48.532;8.026;2023-12-29T14:41:10;12.20;1.00
21207;DHT22;10761;48.532;8.026;2023-12-29T14:43:35;12.20;1.00
21207;DHT22;10761;48.532;8.026;2023-12-29T14:46:01;12.20;1.00
21207;DHT22;10761;48.532;8.026;2023-12-29T14:48:27;12.20;1.00
21207;DHT22;10761;48.532;8.026;2023-12-29T14:50:52;12.10;1.00
21207;DHT22;10761;48.532;8.026;2023-12-29T14:53:18;12.00;1.00
21207;DHT22;10761;48.532;8.026;2023-12-29T14:55:44;12.00;1.00
21207;DHT22;10761;48.532;8.026;2023-12-29T14:58:10;12.00;1.00
21207;DHT22;10761;48.532;8.026;2023-12-29T15:00:36;11.90;1.00
21207;DHT22;10761;48.532;8.026;2023-12-29T15:03:01;11.80;1.00
21207;DHT22;10761;48.532;8.026;2023-12-29T15:05:28;11.80;1.00
21207;DHT22;10761;48.532;8.026;2023-12-29T15:07:53;11.80;1.00
21207;DHT22;10761;48.532;8.026;2023-12-29T15:10:19;11.70;1.00
21207;DHT22;10761;48.532;8.026;2023-12-29T15:12:44;11.70;1.00
21207;DHT22;10761;48.532;8.026;2023-12-29T15:15:10;11.60;1.00
21207;DHT22;10761;48.532;8.026;2023-12-29T15:17:39;11.50;35.10
21207;DHT22;10761;48.532;8.026;2023-12-29T15:20:05;11.50;99.90
21207;DHT22;10761;48.532;8.026;2023-12-29T15:22:30;11.40;99.90
21207;DHT22;10761;48.532;8.026;2023-12-29T15:24:56;11.30;99.90
21207;DHT22;10761;48.532;8.026;2023-12-29T15:27:23;11.20;99.90
21207;DHT22;10761;48.532;8.026;2023-12-29T15:29:48;11.20;1.00
21207;DHT22;10761;48.532;8.026;2023-12-29T15:32:14;11.10;1.00
21207;DHT22;10761;48.532;8.026;2023-12-29T15:34:39;11.00;1.00
21207;DHT22;10761;48.532;8.026;2023-12-29T15:37:05;10.90;1.00
21207;DHT22;10761;48.532;8.026;2023-12-29T15:39:31;10.80;1.00
21207;DHT22;10761;48.532;8.026;2023-12-29T15:41:56;10.80;1.00
21207;DHT22;10761;48.532;8.026;2023-12-29T15:44:22;10.70;1.00
21207;DHT22;10761;48.532;8.026;2023-12-29T15:46:47;10.70;1.00
21207;DHT22;10761;48.532;8.026;2023-12-29T15:49:13;10.70;1.00
21207;DHT22;10761;48.532;8.026;2023-12-29T15:51:38;10.60;1.00
21207;DHT22;10761;48.532;8.026;2023-12-29T15:54:05;10.60;4.70
21207;DHT22;10761;48.532;8.026;2023-12-29T15:56:31;10.50;78.40
21207;DHT22;10761;48.532;8.026;2023-12-29T15:58:57;10.50;99.90
21207;DHT22;10761;48.532;8.026;2023-12-29T16:01:26;10.40;99.90